createdAt,value
2022-12-19T00:01:37.964Z,-1.44
2022-12-19T00:04:08.657Z,-1.49
2022-12-19T00:06:38.105Z,-1.51
2022-12-19T00:09:10.359Z,-1.54
2022-12-19T00:11:38.846Z,-1.59
2022-12-19T00:14:06.478Z,-1.69
2022-12-19T00:16:33.375Z,-1.74
2022-12-19T00:19:01.798Z,-1.77
2022-12-19T00:21:31.104Z,-1.96
2022-12-19T00:24:03.241Z,-2.10
2022-12-19T00:26:34.382Z,-2.13
2022-12-19T00:29:11.181Z,-2.11
2022-12-19T00:31:40.738Z,-2.07
2022-12-19T00:34:07.423Z,-2.08
2022-12-19T00:36:34.712Z,-2.15
2022-12-19T00:39:02.457Z,-2.04
2022-12-19T00:41:36.764Z,-2.05
2022-12-19T00:44:06.239Z,-1.97
2022-12-19T00:46:35.313Z,-1.76
2022-12-19T00:49:02.419Z,-1.53
2022-12-19T00:51:31.273Z,-1.42
2022-12-19T00:53:58.970Z,-1.35
2022-12-19T00:56:33.439Z,-1.42
2022-12-19T00:59:03.969Z,-1.41
2022-12-19T01:01:34.326Z,-1.25
2022-12-19T01:06:49.985Z,-0.80
2022-12-19T01:09:17.702Z,-0.69
2022-12-19T01:12:02.890Z,-0.51
2022-12-19T01:14:29.587Z,-0.28
2022-12-19T01:16:56.138Z,-0.33
2022-12-19T01:19:22.880Z,-0.19
2022-12-19T01:21:49.693Z,-0.26
2022-12-19T01:24:19.039Z,-0.29
2022-12-19T01:26:46.275Z,-0.39
2022-12-19T01:29:13.053Z,-0.34
2022-12-19T01:31:39.803Z,-0.34
2022-12-19T01:34:06.628Z,-0.18
2022-12-19T01:36:34.959Z,-0.17
2022-12-19T01:39:06.717Z,-0.31
2022-12-19T01:41:33.383Z,-0.10
2022-12-19T01:44:01.435Z,0.12
2022-12-19T01:46:42.557Z,0.47
2022-12-19T01:49:35.397Z,0.58
2022-12-19T01:52:10.653Z,0.68
2022-12-19T01:54:41.682Z,0.66
2022-12-19T01:57:12.871Z,0.82
2022-12-19T01:59:46.053Z,0.83
2022-12-19T02:02:23.622Z,0.75
2022-12-19T02:04:50.315Z,0.78
2022-12-19T02:07:18.834Z,0.70
2022-12-19T02:09:47.167Z,0.80
2022-12-19T02:12:17.832Z,0.62
2022-12-19T02:14:44.509Z,0.76
2022-12-19T02:17:35.643Z,0.77
2022-12-19T02:20:30.176Z,0.78
2022-12-19T02:23:34.574Z,0.73
2022-12-19T02:26:10.387Z,0.62
2022-12-19T02:29:00.805Z,0.58
2022-12-19T02:31:49.437Z,0.59
2022-12-19T02:34:18.982Z,0.64
2022-12-19T02:37:09.644Z,0.67
2022-12-19T02:39:47.342Z,0.67
2022-12-19T02:42:22.595Z,0.54
2022-12-19T02:44:52.905Z,0.70
2022-12-19T02:47:22.005Z,0.75
2022-12-19T02:49:49.355Z,0.72
2022-12-19T02:52:18.904Z,0.86
2022-12-19T02:54:47.891Z,0.78
2022-12-19T02:57:28.346Z,0.76
2022-12-19T02:59:58.028Z,0.96
2022-12-19T03:03:00.807Z,1.02
2022-12-19T03:05:34.005Z,1.01
2022-12-19T03:08:25.698Z,1.11
2022-12-19T03:11:02.213Z,1.06
2022-12-19T03:13:41.265Z,0.97
2022-12-19T03:16:10.991Z,0.89
2022-12-19T03:18:38.256Z,0.82
2022-12-19T03:21:11.036Z,0.66
2022-12-19T03:23:38.507Z,0.74
2022-12-19T03:26:19.217Z,0.86
2022-12-19T03:28:53.882Z,0.86
2022-12-19T03:31:24.965Z,0.81
2022-12-19T03:33:56.487Z,0.82
2022-12-19T03:36:29.181Z,0.97
2022-12-19T03:38:57.244Z,0.89
2022-12-19T03:41:45.169Z,0.87
2022-12-19T03:44:15.861Z,0.92
2022-12-19T03:46:49.979Z,0.95
2022-12-19T03:49:16.845Z,0.96
2022-12-19T03:51:59.180Z,1.09
2022-12-19T03:54:29.999Z,0.97
2022-12-19T03:57:30.003Z,1.03
2022-12-19T04:00:09.240Z,1.14
2022-12-19T04:02:39.722Z,1.04
2022-12-19T04:05:10.083Z,1.18
2022-12-19T04:07:40.535Z,1.19
2022-12-19T04:10:11.555Z,1.10
2022-12-19T04:12:47.811Z,1.20
2022-12-19T04:15:15.251Z,1.20
2022-12-19T04:17:55.492Z,1.13
2022-12-19T04:20:25.760Z,1.10
2022-12-19T04:23:09.265Z,1.22
2022-12-19T04:25:40.192Z,1.16
2022-12-19T04:28:13.641Z,1.18
2022-12-19T04:30:43.150Z,1.19
2022-12-19T04:33:09.974Z,1.19
2022-12-19T04:35:37.217Z,1.22
2022-12-19T04:38:04.478Z,1.14
2022-12-19T04:40:33.589Z,1.17
2022-12-19T04:43:03.164Z,1.19
2022-12-19T04:45:30.661Z,1.12
2022-12-19T04:47:57.721Z,1.13
2022-12-19T04:50:24.445Z,1.11
2022-12-19T04:52:55.631Z,1.09
2022-12-19T04:55:23.933Z,0.94
2022-12-19T04:57:50.497Z,0.91
2022-12-19T05:00:17.383Z,1.01
2022-12-19T05:02:45.811Z,0.95
2022-12-19T05:05:12.541Z,0.97
2022-12-19T05:07:40.691Z,0.90
2022-12-19T05:10:08.251Z,0.82
2022-12-19T05:12:35.202Z,0.93
2022-12-19T05:15:02.026Z,0.89
2022-12-19T05:17:28.715Z,0.87
2022-12-19T05:19:55.351Z,0.89
2022-12-19T05:22:22.098Z,0.86
2022-12-19T05:24:48.784Z,0.80
2022-12-19T05:27:15.333Z,0.75
2022-12-19T05:29:41.969Z,0.80
2022-12-19T05:32:08.716Z,0.82
2022-12-19T05:34:35.404Z,0.83
2022-12-19T05:37:03.674Z,0.81
2022-12-19T05:39:30.759Z,0.84
2022-12-19T05:41:57.514Z,0.82
2022-12-19T05:44:24.853Z,0.81
2022-12-19T05:46:51.997Z,0.71
2022-12-19T05:49:18.828Z,0.77
2022-12-19T05:51:45.466Z,0.75
2022-12-19T05:54:12.077Z,0.77
2022-12-19T05:56:38.733Z,0.83
2022-12-19T05:59:05.496Z,0.90
2022-12-19T06:01:32.733Z,0.88
2022-12-19T06:03:59.444Z,0.90
2022-12-19T06:06:27.241Z,0.92
2022-12-19T06:08:55.510Z,0.98
2022-12-19T06:11:22.872Z,0.98
2022-12-19T06:13:49.618Z,1.01
2022-12-19T06:16:18.653Z,1.04
2022-12-19T06:18:46.344Z,1.02
2022-12-19T06:21:15.906Z,1.16
2022-12-19T06:23:43.678Z,1.09
2022-12-19T06:26:17.101Z,1.20
2022-12-19T06:28:46.593Z,1.24
2022-12-19T06:31:13.589Z,1.26
2022-12-19T06:33:40.380Z,1.31
2022-12-19T06:36:08.671Z,1.39
2022-12-19T06:38:35.511Z,1.43
2022-12-19T06:41:22.269Z,1.41
2022-12-19T06:43:53.337Z,1.43
2022-12-19T06:46:20.734Z,1.48
2022-12-19T06:48:48.073Z,1.49
2022-12-19T06:51:14.907Z,1.44
2022-12-19T06:53:41.716Z,1.46
2022-12-19T06:56:08.668Z,1.40
2022-12-19T06:58:35.592Z,1.34
2022-12-19T07:01:02.419Z,1.26
2022-12-19T07:03:40.992Z,1.15
2022-12-19T07:06:08.191Z,1.09
2022-12-19T07:08:34.833Z,1.05
2022-12-19T07:11:01.522Z,1.07
2022-12-19T07:13:28.149Z,1.13
2022-12-19T07:16:01.614Z,1.22
2022-12-19T07:18:32.120Z,1.23
2022-12-19T07:20:58.773Z,1.28
2022-12-19T07:23:25.525Z,1.30
2022-12-19T07:25:52.377Z,1.22
2022-12-19T07:28:19.406Z,1.21
2022-12-19T07:30:45.944Z,1.18
2022-12-19T07:33:16.975Z,1.15
2022-12-19T07:35:46.453Z,1.27
2022-12-19T07:38:12.995Z,1.27
2022-12-19T07:40:39.703Z,1.32
2022-12-19T07:43:07.016Z,1.32
2022-12-19T07:45:34.690Z,1.42
2022-12-19T07:48:02.899Z,1.48
2022-12-19T07:50:30.300Z,1.54
2022-12-19T07:52:58.410Z,1.67
2022-12-19T07:55:25.871Z,1.72
2022-12-19T07:57:53.781Z,1.82
2022-12-19T08:00:20.570Z,1.82
2022-12-19T08:02:48.128Z,1.80
2022-12-19T08:05:15.027Z,1.88
2022-12-19T08:07:41.710Z,2.00
2022-12-19T08:10:09.363Z,1.95
2022-12-19T08:12:36.048Z,2.01
2022-12-19T08:15:02.743Z,1.91
2022-12-19T08:17:29.401Z,1.90
2022-12-19T08:19:56.024Z,1.91
2022-12-19T08:22:23.160Z,1.92
2022-12-19T08:24:49.790Z,1.93
2022-12-19T08:27:17.860Z,1.87
2022-12-19T08:29:44.827Z,1.95
2022-12-19T08:32:14.445Z,1.95
2022-12-19T08:34:43.738Z,1.88
2022-12-19T08:37:11.326Z,1.91
2022-12-19T08:39:38.032Z,1.99
2022-12-19T08:42:04.754Z,1.95
2022-12-19T08:44:31.414Z,1.95
2022-12-19T08:46:58.227Z,1.91
2022-12-19T08:49:24.864Z,2.00
2022-12-19T08:51:52.120Z,2.02
2022-12-19T08:54:18.909Z,1.95
2022-12-19T08:56:46.926Z,1.88
2022-12-19T08:59:21.269Z,1.98
2022-12-19T09:01:58.415Z,1.89
2022-12-19T09:05:15.379Z,1.90
2022-12-19T09:07:15.216Z,1.93
2022-12-19T09:09:43.011Z,1.97
2022-12-19T09:12:09.682Z,1.96
2022-12-19T09:14:36.770Z,1.94
2022-12-19T09:17:04.757Z,2.00
2022-12-19T09:19:32.147Z,2.05
2022-12-19T09:21:59.355Z,2.01
2022-12-19T09:24:26.718Z,2.11
2022-12-19T09:26:53.595Z,2.05
2022-12-19T09:29:22.092Z,2.10
2022-12-19T09:31:56.272Z,2.13
2022-12-19T09:34:36.212Z,2.21
2022-12-19T09:37:08.738Z,2.24
2022-12-19T09:39:36.468Z,2.20
2022-12-19T09:42:27.806Z,2.26
2022-12-19T09:45:01.593Z,2.35
2022-12-19T09:47:31.376Z,2.43
2022-12-19T09:49:59.799Z,2.50
2022-12-19T09:52:41.255Z,2.55
2022-12-19T09:55:25.481Z,2.65
2022-12-19T09:58:01.957Z,2.77
2022-12-19T10:00:59.603Z,2.84
2022-12-19T10:03:40.761Z,2.89
2022-12-19T10:07:12.404Z,3.00
2022-12-19T10:11:18.169Z,3.08
2022-12-19T10:12:47.742Z,3.03
2022-12-19T10:15:47.267Z,3.18
2022-12-19T10:18:31.225Z,3.27
2022-12-19T10:21:05.645Z,3.28
2022-12-19T10:23:52.175Z,3.44
2022-12-19T10:26:46.750Z,3.55
2022-12-19T10:29:48.595Z,3.59
2022-12-19T10:32:34.619Z,3.71
2022-12-19T10:35:01.815Z,3.83
2022-12-19T10:37:47.436Z,3.89
2022-12-19T10:40:35.059Z,3.89
2022-12-19T10:43:33.691Z,3.97
2022-12-19T10:46:11.600Z,4.10
2022-12-19T10:48:38.312Z,4.14
2022-12-19T10:51:06.723Z,4.15
2022-12-19T10:53:34.274Z,4.22
2022-12-19T10:56:26.649Z,4.30
2022-12-19T10:59:01.605Z,4.36
2022-12-19T11:01:33.671Z,4.47
2022-12-19T11:04:29.773Z,4.53
2022-12-19T11:07:02.469Z,4.63
2022-12-19T11:09:31.730Z,4.59
2022-12-19T11:13:20.387Z,4.77
2022-12-19T11:18:53.136Z,4.86
2022-12-19T11:26:35.137Z,4.82
2022-12-19T11:29:19.441Z,4.83
2022-12-19T11:29:54.648Z,4.86
2022-12-19T11:30:37.383Z,4.92
2022-12-19T11:32:45.456Z,5.08
2022-12-19T11:35:15.456Z,5.22
2022-12-19T11:37:55.548Z,5.33
2022-12-19T11:40:53.178Z,5.42
2022-12-19T11:43:45.794Z,5.42
2022-12-19T11:46:26.531Z,5.46
2022-12-19T11:49:06.307Z,5.61
2022-12-19T11:51:32.982Z,5.60
2022-12-19T11:54:24.596Z,5.66
2022-12-19T11:56:51.311Z,5.68
2022-12-19T11:59:22.339Z,5.62
2022-12-19T12:02:02.610Z,5.56
2022-12-19T12:04:45.623Z,5.66
2022-12-19T12:07:33.353Z,5.75
2022-12-19T12:14:39.776Z,5.57
2022-12-19T12:19:45.843Z,5.69
2022-12-19T12:28:25.572Z,5.59
2022-12-19T12:31:15.118Z,5.55
2022-12-19T12:31:18.281Z,5.59
2022-12-19T12:31:26.457Z,5.58
2022-12-19T12:31:58.266Z,5.58
2022-12-19T12:35:33.627Z,5.57
2022-12-19T12:41:07.083Z,5.55
2022-12-19T12:43:45.704Z,5.60
2022-12-19T12:46:27.498Z,5.53
2022-12-19T12:49:00.586Z,5.57
2022-12-19T12:51:27.903Z,5.54
2022-12-19T12:54:03.552Z,5.61
2022-12-19T12:56:30.791Z,5.53
2022-12-19T12:58:57.360Z,5.73
2022-12-19T13:01:29.795Z,5.69
2022-12-19T13:04:06.896Z,5.78
2022-12-19T13:06:37.494Z,5.79
2022-12-19T13:09:10.220Z,5.83
2022-12-19T13:12:13.719Z,5.94
2022-12-19T13:14:42.476Z,5.84
2022-12-19T13:17:35.195Z,5.90
2022-12-19T13:20:04.814Z,5.96
2022-12-19T13:22:32.020Z,5.88
2022-12-19T13:25:00.536Z,6.03
2022-12-19T13:27:27.124Z,5.94
2022-12-19T13:29:56.878Z,6.00
2022-12-19T13:32:24.003Z,5.92
2022-12-19T13:35:06.948Z,6.04
2022-12-19T13:39:55.538Z,5.99
2022-12-19T13:41:23.062Z,6.07
2022-12-19T13:43:50.048Z,6.24
2022-12-19T13:46:42.686Z,6.23
2022-12-19T13:49:26.222Z,6.08
2022-12-19T13:51:58.815Z,6.19
2022-12-19T13:54:37.006Z,6.13
2022-12-19T13:57:22.214Z,6.14
2022-12-19T13:59:59.768Z,6.27
2022-12-19T14:02:45.269Z,6.29
2022-12-19T14:06:16.940Z,6.21
2022-12-19T14:08:29.031Z,6.12
2022-12-19T14:11:38.481Z,6.32
2022-12-19T14:14:20.611Z,6.24
2022-12-19T14:16:52.606Z,6.21
2022-12-19T14:19:20.405Z,6.09
2022-12-19T14:22:04.369Z,6.23
2022-12-19T14:24:34.176Z,6.25
2022-12-19T14:28:20.907Z,6.21
2022-12-19T14:30:31.107Z,6.22
2022-12-19T14:33:45.424Z,6.15
2022-12-19T14:36:10.134Z,6.20
2022-12-19T14:39:24.342Z,6.16
2022-12-19T14:41:55.991Z,6.12
2022-12-19T14:53:08.439Z,6.16
2022-12-19T14:54:02.055Z,6.14
2022-12-19T14:54:22.390Z,6.19
2022-12-19T14:54:47.717Z,6.21
2022-12-19T14:56:30.999Z,6.21
2022-12-19T14:58:59.836Z,6.26
2022-12-19T15:01:29.578Z,6.12
2022-12-19T15:04:52.890Z,6.11
2022-12-19T15:07:07.384Z,6.16
2022-12-19T15:11:09.504Z,6.16
2022-12-19T15:14:51.841Z,6.17
2022-12-19T15:16:05.118Z,6.13
2022-12-19T15:18:42.874Z,6.14
2022-12-19T15:21:14.728Z,6.01
2022-12-19T15:23:43.722Z,6.03
2022-12-19T15:26:16.485Z,6.04
2022-12-19T15:28:47.663Z,6.10
2022-12-19T15:31:30.013Z,6.00
2022-12-19T15:34:32.899Z,5.99
2022-12-19T15:36:43.832Z,5.92
2022-12-19T15:39:10.551Z,5.93
2022-12-19T15:41:37.222Z,5.91
2022-12-19T15:44:15.797Z,6.05
2022-12-19T15:46:48.384Z,5.99
2022-12-19T15:49:18.056Z,5.96
2022-12-19T15:51:45.075Z,5.85
2022-12-19T15:56:58.335Z,6.05
2022-12-19T15:59:38.944Z,5.97
2022-12-19T16:02:17.533Z,6.05
2022-12-19T16:04:46.522Z,6.06
2022-12-19T16:07:22.219Z,6.14
2022-12-19T16:09:49.815Z,6.16
2022-12-19T16:12:23.345Z,6.21
2022-12-19T16:14:56.975Z,6.23
2022-12-19T16:17:25.307Z,6.18
2022-12-19T16:19:52.198Z,6.21
2022-12-19T16:22:22.608Z,6.28
2022-12-19T16:24:50.674Z,6.42
2022-12-19T16:27:29.795Z,6.42
2022-12-19T16:30:02.885Z,6.31
2022-12-19T16:32:29.463Z,6.27
2022-12-19T16:34:56.156Z,6.29
2022-12-19T16:37:27.197Z,6.16
2022-12-19T16:39:56.941Z,6.14
2022-12-19T16:42:23.624Z,6.16
2022-12-19T16:44:50.335Z,6.07
2022-12-19T16:47:18.131Z,6.09
2022-12-19T16:49:45.246Z,6.07
2022-12-19T16:52:12.460Z,5.90
2022-12-19T16:54:39.255Z,6.12
2022-12-19T16:57:15.009Z,6.08
2022-12-19T16:59:41.969Z,6.08
2022-12-19T17:02:26.882Z,6.08
2022-12-19T17:04:54.279Z,6.12
2022-12-19T17:07:21.021Z,6.12
2022-12-19T17:09:47.686Z,6.10
2022-12-19T17:12:18.036Z,6.11
2022-12-19T17:14:44.987Z,6.04
2022-12-19T17:17:15.769Z,6.15
2022-12-19T17:19:45.455Z,6.15
2022-12-19T17:22:15.101Z,6.34
2022-12-19T17:24:42.271Z,6.52
2022-12-19T17:27:08.838Z,6.49
2022-12-19T17:29:35.467Z,6.54
2022-12-19T17:32:02.386Z,6.42
2022-12-19T17:34:32.033Z,6.70
2022-12-19T17:37:00.723Z,6.68
2022-12-19T17:39:29.985Z,6.80
2022-12-19T17:42:01.547Z,6.79
2022-12-19T17:44:28.113Z,6.82
2022-12-19T17:46:54.832Z,6.79
2022-12-19T17:49:29.329Z,6.75
2022-12-19T17:51:57.065Z,6.72
2022-12-19T17:54:23.744Z,6.72
2022-12-19T17:56:50.742Z,6.77
2022-12-19T17:59:17.720Z,6.83
2022-12-19T18:01:47.323Z,6.91
2022-12-19T18:04:16.607Z,6.87
2022-12-19T18:06:43.571Z,6.78
2022-12-19T18:09:24.621Z,6.74
2022-12-19T18:11:52.990Z,6.80
2022-12-19T18:14:19.780Z,6.74
2022-12-19T18:16:47.078Z,6.73
2022-12-19T18:19:19.912Z,6.64
2022-12-19T18:21:46.973Z,6.65
2022-12-19T18:24:16.523Z,6.69
2022-12-19T18:26:44.596Z,6.67
2022-12-19T18:29:11.874Z,6.79
2022-12-19T18:31:42.524Z,6.89
2022-12-19T18:34:26.383Z,6.82
2022-12-19T18:36:53.704Z,6.95
2022-12-19T18:39:25.538Z,6.96
2022-12-19T18:41:53.208Z,6.98
2022-12-19T18:44:20.691Z,6.96
2022-12-19T18:46:49.824Z,6.98
2022-12-19T18:49:17.723Z,7.00
2022-12-19T18:51:45.260Z,7.07
2022-12-19T18:54:14.102Z,7.07
2022-12-19T18:56:40.796Z,7.03
2022-12-19T18:59:07.289Z,7.16
2022-12-19T19:01:43.571Z,7.32
2022-12-19T19:04:13.258Z,7.36
2022-12-19T19:06:46.746Z,7.61
2022-12-19T19:09:18.203Z,7.58
2022-12-19T19:11:45.207Z,7.62
2022-12-19T19:14:12.483Z,7.67
2022-12-19T19:16:40.313Z,7.85
2022-12-19T19:19:10.270Z,7.87
2022-12-19T19:21:37.559Z,7.82
2022-12-19T19:24:18.104Z,7.95
2022-12-19T19:26:44.976Z,7.78
2022-12-19T19:29:13.858Z,7.86
2022-12-19T19:31:46.125Z,7.76
2022-12-19T19:34:18.501Z,8.08
2022-12-19T19:36:49.659Z,8.01
2022-12-19T19:39:17.183Z,8.04
2022-12-19T19:41:43.755Z,8.10
2022-12-19T19:44:10.371Z,8.02
2022-12-19T19:46:37.631Z,8.02
2022-12-19T19:49:04.449Z,8.06
2022-12-19T19:51:31.142Z,7.97
2022-12-19T19:53:57.900Z,7.80
2022-12-19T19:56:24.533Z,7.70
2022-12-19T19:58:51.137Z,7.60
2022-12-19T20:01:17.783Z,7.63
2022-12-19T20:03:45.183Z,7.65
2022-12-19T20:06:12.616Z,7.53
2022-12-19T20:08:40.530Z,7.37
2022-12-19T20:11:09.029Z,7.46
2022-12-19T20:13:36.016Z,7.46
2022-12-19T20:16:07.576Z,7.47
2022-12-19T20:18:35.377Z,7.42
2022-12-19T20:21:03.865Z,7.36
2022-12-19T20:23:33.257Z,7.27
2022-12-19T20:26:04.939Z,7.20
2022-12-19T20:28:32.294Z,7.20
2022-12-19T20:30:59.689Z,7.17
2022-12-19T20:33:26.988Z,7.12
2022-12-19T20:35:57.759Z,6.97
2022-12-19T20:38:25.175Z,6.26
2022-12-19T20:40:55.772Z,6.06
2022-12-19T20:43:23.994Z,5.88
2022-12-19T20:45:51.153Z,5.95
2022-12-19T20:48:18.691Z,6.22
2022-12-19T20:50:45.313Z,6.39
2022-12-19T20:53:11.887Z,6.51
2022-12-19T20:55:38.531Z,6.55
2022-12-19T20:58:05.213Z,6.47
2022-12-19T21:00:31.902Z,6.41
2022-12-19T21:05:52.585Z,6.43
2022-12-19T21:08:19.463Z,6.45
2022-12-19T21:10:46.055Z,6.46
2022-12-19T21:13:12.623Z,6.44
2022-12-19T21:15:39.273Z,6.54
2022-12-19T21:18:06.072Z,6.60
2022-12-19T21:20:38.262Z,6.46
2022-12-19T21:23:05.431Z,6.40
2022-12-19T21:25:32.167Z,6.34
2022-12-19T21:27:58.906Z,6.30
2022-12-19T21:30:25.612Z,6.27
2022-12-19T21:32:52.387Z,6.23
2022-12-19T21:35:19.078Z,6.20
2022-12-19T21:37:50.242Z,6.15
2022-12-19T21:40:20.460Z,6.06
2022-12-19T21:42:47.183Z,5.98
2022-12-19T21:45:14.790Z,5.87
2022-12-19T21:47:42.249Z,5.77
2022-12-19T21:50:12.024Z,5.66
2022-12-19T21:52:39.376Z,5.54
2022-12-19T21:55:07.783Z,5.49
2022-12-19T21:57:41.810Z,5.51
2022-12-19T22:00:11.268Z,5.44
2022-12-19T22:02:38.906Z,5.39
2022-12-19T22:05:06.826Z,5.65
2022-12-19T22:07:33.885Z,5.74
2022-12-19T22:10:00.977Z,5.84
2022-12-19T22:12:27.583Z,5.81
2022-12-19T22:14:54.213Z,5.93
2022-12-19T22:17:20.783Z,5.99
2022-12-19T22:19:47.485Z,6.00
2022-12-19T22:22:14.086Z,5.99
2022-12-19T22:24:40.726Z,5.97
2022-12-19T22:27:07.331Z,6.03
2022-12-19T22:29:36.635Z,6.06
2022-12-19T22:32:04.754Z,5.94
2022-12-19T22:34:31.704Z,5.67
2022-12-19T22:36:58.279Z,5.54
2022-12-19T22:39:25.037Z,5.51
2022-12-19T22:41:51.808Z,5.45
2022-12-19T22:44:23.900Z,5.39
2022-12-19T22:46:51.844Z,5.61
2022-12-19T22:49:18.890Z,5.89
2022-12-19T22:51:45.706Z,5.95
2022-12-19T22:54:13.739Z,5.97
2022-12-19T22:56:40.551Z,6.14
2022-12-19T22:59:08.671Z,6.40
2022-12-19T23:01:38.506Z,6.40
2022-12-19T23:04:06.631Z,6.44
2022-12-19T23:06:35.195Z,6.39
2022-12-19T23:09:02.059Z,6.22
2022-12-19T23:11:32.273Z,6.20
2022-12-19T23:14:00.435Z,6.38
2022-12-19T23:16:27.207Z,6.49
2022-12-19T23:18:53.830Z,6.54
2022-12-19T23:21:23.108Z,6.80
2022-12-19T23:23:52.117Z,6.87
2022-12-19T23:26:30.912Z,7.01
2022-12-19T23:29:03.575Z,6.94
2022-12-19T23:31:30.792Z,7.01
2022-12-19T23:33:58.382Z,6.99
2022-12-19T23:37:09.068Z,7.08
2022-12-19T23:39:13.425Z,6.98
2022-12-19T23:41:40.612Z,6.97
2022-12-19T23:44:08.801Z,6.93
2022-12-19T23:46:35.940Z,6.95
2022-12-19T23:49:02.924Z,7.00
2022-12-19T23:51:30.289Z,7.07
2022-12-19T23:53:57.109Z,7.26
2022-12-19T23:56:26.705Z,7.37
2022-12-19T23:58:53.961Z,7.39
